createdAt,value
2023-10-17T00:01:14.627Z,53.50
2023-10-17T00:03:44.838Z,53.50
2023-10-17T00:06:14.721Z,53.50
2023-10-17T00:08:43.165Z,53.50
2023-10-17T00:11:16.120Z,53.40
2023-10-17T00:13:59.341Z,53.50
2023-10-17T00:16:29.682Z,53.50
2023-10-17T00:19:05.739Z,53.50
2023-10-17T00:21:34.218Z,53.40
2023-10-17T00:24:06.128Z,53.40
2023-10-17T00:26:34.176Z,53.40
2023-10-17T00:29:06.246Z,53.50
2023-10-17T00:31:36.553Z,53.30
2023-10-17T00:34:14.188Z,53.40
2023-10-17T00:36:49.205Z,53.40
2023-10-17T00:39:24.190Z,53.30
2023-10-17T00:42:10.826Z,53.30
2023-10-17T00:44:39.930Z,53.40
2023-10-17T00:47:12.681Z,53.30
2023-10-17T00:49:43.249Z,53.30
2023-10-17T00:52:19.495Z,53.30
2023-10-17T00:54:48.578Z,53.30
2023-10-17T00:57:16.795Z,53.30
2023-10-17T00:59:51.999Z,53.30
2023-10-17T01:02:24.518Z,53.30
2023-10-17T01:04:52.912Z,53.30
2023-10-17T01:07:28.271Z,53.30
2023-10-17T01:10:11.062Z,53.30
2023-10-17T01:12:46.918Z,53.30
2023-10-17T01:15:21.305Z,53.30
2023-10-17T01:17:55.129Z,53.30
2023-10-17T01:20:23.596Z,53.30
2023-10-17T01:22:56.877Z,53.30
2023-10-17T01:25:27.805Z,53.30
2023-10-17T01:27:58.260Z,53.30
2023-10-17T01:30:30.663Z,53.30
2023-10-17T01:32:59.359Z,53.30
2023-10-17T01:35:28.039Z,53.30
2023-10-17T01:37:56.764Z,53.30
2023-10-17T01:40:27.915Z,53.30
2023-10-17T01:42:58.158Z,53.30
2023-10-17T01:45:30.787Z,53.20
2023-10-17T01:48:00.078Z,53.20
2023-10-17T01:50:29.110Z,53.30
2023-10-17T01:53:01.394Z,53.30
2023-10-17T01:55:31.232Z,53.20
2023-10-17T01:58:00.844Z,53.20
2023-10-17T02:00:39.004Z,53.30
2023-10-17T02:03:08.296Z,53.20
2023-10-17T02:05:36.959Z,53.20
2023-10-17T02:08:06.439Z,53.30
2023-10-17T02:10:37.928Z,53.20
2023-10-17T02:13:07.443Z,53.20
2023-10-17T02:15:36.308Z,53.20
2023-10-17T02:18:14.550Z,53.20
2023-10-17T02:20:49.220Z,53.20
2023-10-17T02:23:20.822Z,53.20
2023-10-17T02:25:51.399Z,53.20
2023-10-17T02:28:19.357Z,53.20
2023-10-17T02:30:47.363Z,53.20
2023-10-17T02:33:18.462Z,53.20
2023-10-17T02:35:54.713Z,53.20
2023-10-17T02:38:23.098Z,53.10
2023-10-17T02:40:56.012Z,53.10
2023-10-17T02:43:23.959Z,53.20
2023-10-17T02:45:54.697Z,53.20
2023-10-17T02:48:27.390Z,53.20
2023-10-17T02:51:01.491Z,53.10
2023-10-17T02:53:31.455Z,53.20
2023-10-17T02:56:08.364Z,53.20
2023-10-17T02:58:36.551Z,53.20
2023-10-17T03:01:04.469Z,53.10
2023-10-17T03:03:35.399Z,53.10
2023-10-17T03:06:06.735Z,53.10
2023-10-17T03:08:37.795Z,53.10
2023-10-17T03:11:09.354Z,53.10
2023-10-17T03:13:41.955Z,53.10
2023-10-17T03:16:17.352Z,53.20
2023-10-17T03:18:50.841Z,53.00
2023-10-17T03:21:19.907Z,53.20
2023-10-17T03:23:51.045Z,53.10
2023-10-17T03:26:23.340Z,53.20
2023-10-17T03:28:52.097Z,53.10
2023-10-17T03:31:22.432Z,53.00
2023-10-17T03:33:53.088Z,53.00
2023-10-17T03:36:44.206Z,53.00
2023-10-17T03:39:23.040Z,53.00
2023-10-17T03:41:57.764Z,53.00
2023-10-17T03:44:31.106Z,53.00
2023-10-17T03:47:05.157Z,53.00
2023-10-17T03:49:38.141Z,53.00
2023-10-17T03:52:08.111Z,53.10
2023-10-17T03:54:40.088Z,53.10
2023-10-17T03:57:16.840Z,53.00
2023-10-17T03:59:52.335Z,53.70
2023-10-17T04:02:21.494Z,53.00
2023-10-17T04:04:54.396Z,53.00
2023-10-17T04:07:24.163Z,53.10
2023-10-17T04:09:55.566Z,53.10
2023-10-17T04:12:33.190Z,53.00
2023-10-17T04:15:05.710Z,53.00
2023-10-17T04:17:37.553Z,53.00
2023-10-17T04:20:13.138Z,53.10
2023-10-17T04:22:44.518Z,53.10
2023-10-17T04:25:35.288Z,53.00
2023-10-17T04:28:05.182Z,53.00
2023-10-17T04:30:36.538Z,53.00
2023-10-17T04:33:11.038Z,53.10
2023-10-17T04:35:43.829Z,53.00
2023-10-17T04:38:20.425Z,53.10
2023-10-17T04:41:01.057Z,53.00
2023-10-17T04:43:55.707Z,52.90
2023-10-17T04:46:27.233Z,53.00
2023-10-17T04:48:59.371Z,53.00
2023-10-17T04:51:32.535Z,53.00
2023-10-17T04:54:10.318Z,53.00
2023-10-17T04:56:54.144Z,53.00
2023-10-17T04:59:42.320Z,53.00
2023-10-17T05:02:37.176Z,52.90
2023-10-17T05:05:22.883Z,53.00
2023-10-17T05:08:08.586Z,53.00
2023-10-17T05:10:53.937Z,53.00
2023-10-17T05:13:39.360Z,53.00
2023-10-17T05:16:26.357Z,53.00
2023-10-17T05:19:11.805Z,53.00
2023-10-17T05:21:57.308Z,53.00
2023-10-17T05:24:42.753Z,53.00
2023-10-17T05:27:24.930Z,53.00
2023-10-17T05:30:10.525Z,53.00
2023-10-17T05:32:57.423Z,53.00
2023-10-17T05:35:42.960Z,53.00
2023-10-17T05:38:28.418Z,52.90
2023-10-17T05:41:13.797Z,53.00
2023-10-17T05:43:59.415Z,52.90
2023-10-17T05:46:44.902Z,52.90
2023-10-17T05:49:33.929Z,52.90
2023-10-17T05:52:19.319Z,52.90
2023-10-17T05:55:26.918Z,52.90
2023-10-17T05:58:11.271Z,52.90
2023-10-17T06:00:56.899Z,52.90
2023-10-17T06:03:38.978Z,52.90
2023-10-17T06:06:32.192Z,52.90
2023-10-17T06:09:18.098Z,52.90
2023-10-17T06:12:03.662Z,52.90
2023-10-17T06:14:49.251Z,52.90
2023-10-17T06:17:23.458Z,53.00
2023-10-17T06:19:51.925Z,52.90
2023-10-17T06:22:39.160Z,52.90
2023-10-17T06:25:24.224Z,52.90
2023-10-17T06:28:12.007Z,53.00
2023-10-17T06:30:49.398Z,53.00
2023-10-17T06:33:20.592Z,53.00
2023-10-17T06:35:53.921Z,53.00
2023-10-17T06:38:28.922Z,53.00
2023-10-17T06:41:12.557Z,53.00
2023-10-17T06:43:40.865Z,53.00
2023-10-17T06:46:13.461Z,52.90
2023-10-17T06:48:50.369Z,52.90
2023-10-17T06:51:31.388Z,52.90
2023-10-17T06:54:07.471Z,52.90
2023-10-17T06:56:42.397Z,52.90
2023-10-17T06:59:23.330Z,52.90
2023-10-17T07:02:09.934Z,52.90
2023-10-17T07:04:38.452Z,53.00
2023-10-17T07:07:06.573Z,53.00
2023-10-17T07:09:39.603Z,53.00
2023-10-17T07:12:14.540Z,52.90
2023-10-17T07:14:49.436Z,52.90
2023-10-17T07:17:29.525Z,52.90
2023-10-17T07:20:14.051Z,53.00
2023-10-17T07:22:42.414Z,53.00
2023-10-17T07:25:19.103Z,53.00
2023-10-17T07:27:47.929Z,53.00
2023-10-17T07:30:28.877Z,53.00
2023-10-17T07:32:57.695Z,53.00
2023-10-17T07:35:26.565Z,52.90
2023-10-17T07:37:58.255Z,53.00
2023-10-17T07:40:43.406Z,53.00
2023-10-17T07:43:13.469Z,53.00
2023-10-17T07:45:41.942Z,53.00
2023-10-17T07:48:25.972Z,53.00
2023-10-17T07:50:55.909Z,53.00
2023-10-17T07:53:24.247Z,52.90
2023-10-17T07:56:04.170Z,52.90
2023-10-17T07:58:44.437Z,52.90
2023-10-17T08:01:17.493Z,52.90
2023-10-17T08:03:55.984Z,52.90
2023-10-17T08:06:30.126Z,52.90
2023-10-17T08:09:00.408Z,52.90
2023-10-17T08:11:31.797Z,52.90
2023-10-17T08:14:04.581Z,53.00
2023-10-17T08:16:34.121Z,52.90
2023-10-17T08:19:15.979Z,52.90
2023-10-17T08:22:01.050Z,52.90
2023-10-17T08:24:34.694Z,52.90
2023-10-17T08:27:18.836Z,52.90
2023-10-17T08:29:46.625Z,52.90
2023-10-17T08:32:39.368Z,52.90
2023-10-17T08:35:18.649Z,52.90
2023-10-17T08:37:46.703Z,53.00
2023-10-17T08:40:30.871Z,53.00
2023-10-17T08:43:02.937Z,52.90
2023-10-17T08:45:37.353Z,52.90
2023-10-17T08:48:07.513Z,53.00
2023-10-17T08:50:38.920Z,53.00
2023-10-17T08:53:13.391Z,53.00
2023-10-17T08:55:42.761Z,53.00
2023-10-17T08:58:12.592Z,53.00
2023-10-17T09:00:50.878Z,53.00
2023-10-17T09:03:24.412Z,53.00
2023-10-17T09:05:59.391Z,53.00
2023-10-17T09:08:43.389Z,53.00
2023-10-17T09:11:18.040Z,53.00
2023-10-17T09:14:10.183Z,53.00
2023-10-17T09:16:42.266Z,53.00
2023-10-17T09:19:11.574Z,53.00
2023-10-17T09:21:43.348Z,53.00
2023-10-17T09:24:33.512Z,53.00
2023-10-17T09:27:04.712Z,53.00
2023-10-17T09:29:44.286Z,53.00
2023-10-17T09:32:12.211Z,53.00
2023-10-17T09:34:43.356Z,53.00
2023-10-17T09:37:14.832Z,52.90
2023-10-17T09:39:47.938Z,52.90
2023-10-17T09:42:16.708Z,53.00
2023-10-17T09:44:47.886Z,53.10
2023-10-17T09:47:21.067Z,52.90
2023-10-17T09:49:51.909Z,53.00
2023-10-17T09:52:22.071Z,53.00
2023-10-17T09:54:53.209Z,52.90
2023-10-17T09:57:26.329Z,53.00
2023-10-17T10:00:08.993Z,53.00
2023-10-17T10:02:39.945Z,53.00
2023-10-17T10:05:21.166Z,53.00
2023-10-17T10:07:49.892Z,53.00
2023-10-17T10:10:49.884Z,53.00
2023-10-17T10:13:18.528Z,53.00
2023-10-17T10:15:55.595Z,53.00
2023-10-17T10:19:00.098Z,53.00
2023-10-17T10:21:55.133Z,53.00
2023-10-17T10:24:30.948Z,53.00
2023-10-17T10:27:19.935Z,53.00
2023-10-17T10:29:52.265Z,53.00
2023-10-17T10:32:36.485Z,53.00
2023-10-17T10:35:06.863Z,53.00
2023-10-17T10:37:48.722Z,53.00
2023-10-17T10:40:18.963Z,53.00
2023-10-17T10:42:48.787Z,53.10
2023-10-17T10:45:30.813Z,53.10
2023-10-17T10:48:00.855Z,53.10
2023-10-17T10:50:30.639Z,53.10
2023-10-17T10:52:59.704Z,53.10
2023-10-17T10:55:28.091Z,53.20
2023-10-17T10:57:56.313Z,53.10
2023-10-17T11:00:26.592Z,53.10
2023-10-17T11:02:55.716Z,53.10
2023-10-17T11:05:25.058Z,53.10
2023-10-17T11:08:01.947Z,53.10
2023-10-17T11:10:30.513Z,53.10
2023-10-17T11:12:58.463Z,53.80
2023-10-17T11:15:29.257Z,53.10
2023-10-17T11:18:09.064Z,53.10
2023-10-17T11:20:41.512Z,53.10
2023-10-17T11:23:13.075Z,53.00
2023-10-17T11:25:47.017Z,53.10
2023-10-17T11:28:18.131Z,53.10
2023-10-17T11:30:48.374Z,53.20
2023-10-17T11:33:18.136Z,53.10
2023-10-17T11:35:51.565Z,53.10
2023-10-17T11:38:44.134Z,53.10
2023-10-17T11:41:16.659Z,53.20
2023-10-17T11:43:52.324Z,53.10
2023-10-17T11:46:29.916Z,53.10
2023-10-17T11:49:22.018Z,53.10
2023-10-17T11:51:58.473Z,53.20
2023-10-17T11:56:57.755Z,53.10
2023-10-17T11:59:26.644Z,53.10
2023-10-17T12:01:54.595Z,53.10
2023-10-17T12:04:24.738Z,53.10
2023-10-17T12:06:54.294Z,53.10
2023-10-17T12:09:24.933Z,53.10
2023-10-17T12:11:54.683Z,53.10
2023-10-17T12:14:23.479Z,53.20
2023-10-17T12:16:55.177Z,53.10
2023-10-17T12:19:23.550Z,53.10
2023-10-17T12:21:51.520Z,53.10
2023-10-17T12:24:25.662Z,53.10
2023-10-17T12:26:54.428Z,53.20
2023-10-17T12:29:26.999Z,53.10
2023-10-17T12:31:55.385Z,53.10
2023-10-17T12:34:23.696Z,53.10
2023-10-17T12:36:52.080Z,53.10
2023-10-17T12:39:21.707Z,53.20
2023-10-17T12:41:50.301Z,53.10
2023-10-17T12:44:21.306Z,53.20
2023-10-17T12:46:49.228Z,53.20
2023-10-17T12:49:16.709Z,53.20
2023-10-17T12:51:44.879Z,53.20
2023-10-17T12:54:13.055Z,53.20
2023-10-17T12:56:42.337Z,53.20
2023-10-17T12:59:13.401Z,53.20
2023-10-17T13:01:41.928Z,53.20
2023-10-17T13:04:11.425Z,53.20
2023-10-17T13:06:39.982Z,53.20
2023-10-17T13:09:07.959Z,53.20
2023-10-17T13:11:35.869Z,53.20
2023-10-17T13:14:06.243Z,53.20
2023-10-17T13:16:35.524Z,53.20
2023-10-17T13:19:07.671Z,53.20
2023-10-17T13:21:38.438Z,53.20
2023-10-17T13:24:08.893Z,53.20
2023-10-17T13:26:38.782Z,53.20
2023-10-17T13:29:08.279Z,53.30
2023-10-17T13:31:36.238Z,53.20
2023-10-17T13:34:05.708Z,53.20
2023-10-17T13:36:33.680Z,53.30
2023-10-17T13:39:02.150Z,53.20
2023-10-17T13:41:30.099Z,53.20
2023-10-17T13:43:57.990Z,53.90
2023-10-17T13:46:27.296Z,53.30
2023-10-17T13:48:57.775Z,53.30
2023-10-17T13:51:35.538Z,53.30
2023-10-17T13:54:07.016Z,53.30
2023-10-17T13:56:35.675Z,53.30
2023-10-17T13:59:04.511Z,53.30
2023-10-17T14:01:34.667Z,53.30
2023-10-17T14:04:03.858Z,53.30
2023-10-17T14:06:35.603Z,53.30
2023-10-17T14:09:05.263Z,54.00
2023-10-17T14:11:36.414Z,53.30
2023-10-17T14:14:05.757Z,53.30
2023-10-17T14:16:41.447Z,53.30
2023-10-17T14:19:16.938Z,53.30
2023-10-17T14:22:02.386Z,53.30
2023-10-17T14:24:39.673Z,53.30
2023-10-17T14:27:13.194Z,53.30
2023-10-17T14:29:43.141Z,53.30
2023-10-17T14:32:12.488Z,53.30
2023-10-17T14:34:40.422Z,53.30
2023-10-17T14:37:08.333Z,53.30
2023-10-17T14:39:38.156Z,53.30
2023-10-17T14:42:06.490Z,54.00
2023-10-17T14:44:34.834Z,53.30
2023-10-17T14:47:02.718Z,53.30
2023-10-17T14:49:31.962Z,53.30
2023-10-17T14:51:59.916Z,53.30
2023-10-17T14:54:27.885Z,53.30
2023-10-17T14:56:56.316Z,53.40
2023-10-17T14:59:24.280Z,53.30
2023-10-17T15:01:53.004Z,53.30
2023-10-17T15:04:21.388Z,53.30
2023-10-17T15:06:52.157Z,53.40
2023-10-17T15:09:20.134Z,53.30
2023-10-17T15:11:48.162Z,53.30
2023-10-17T15:14:16.482Z,53.40
2023-10-17T15:16:44.930Z,53.40
2023-10-17T15:19:13.047Z,53.30
2023-10-17T15:21:41.017Z,53.40
2023-10-17T15:24:13.193Z,53.30
2023-10-17T15:26:42.081Z,53.40
2023-10-17T15:29:10.000Z,53.40
2023-10-17T15:31:37.935Z,53.40
2023-10-17T15:34:05.960Z,53.40
2023-10-17T15:36:34.138Z,53.40
2023-10-17T15:39:02.058Z,53.40
2023-10-17T15:41:31.335Z,53.40
2023-10-17T15:43:59.748Z,53.40
2023-10-17T15:46:27.742Z,53.40
2023-10-17T15:48:56.416Z,53.40
2023-10-17T15:51:27.611Z,53.40
2023-10-17T15:53:55.855Z,53.40
2023-10-17T15:56:29.350Z,53.40
2023-10-17T15:58:59.264Z,53.40
2023-10-17T16:01:27.335Z,54.00
2023-10-17T16:03:55.960Z,53.40
2023-10-17T16:06:24.139Z,53.40
2023-10-17T16:08:52.046Z,53.40
2023-10-17T16:11:21.646Z,53.40
2023-10-17T16:13:49.599Z,53.40
2023-10-17T16:16:20.239Z,53.40
2023-10-17T16:18:48.444Z,53.40
2023-10-17T16:21:16.737Z,53.40
2023-10-17T16:23:48.778Z,53.40
2023-10-17T16:26:16.867Z,53.40
2023-10-17T16:28:46.163Z,53.40
2023-10-17T16:31:14.924Z,53.40
2023-10-17T16:33:44.229Z,53.40
2023-10-17T16:36:12.165Z,53.40
2023-10-17T16:38:46.336Z,53.40
2023-10-17T16:41:14.491Z,53.40
2023-10-17T16:43:42.826Z,53.40
2023-10-17T16:46:12.689Z,53.40
2023-10-17T16:48:40.675Z,53.40
2023-10-17T16:51:09.977Z,53.40
2023-10-17T16:53:39.660Z,53.50
2023-10-17T16:56:08.573Z,53.40
2023-10-17T16:58:39.178Z,53.40
2023-10-17T17:01:08.329Z,53.30
2023-10-17T17:03:36.983Z,53.40
2023-10-17T17:06:07.575Z,53.40
2023-10-17T17:08:37.339Z,53.40
2023-10-17T17:11:06.157Z,53.40
2023-10-17T17:13:34.658Z,53.50
2023-10-17T17:16:02.793Z,53.40
2023-10-17T17:18:46.529Z,53.40
2023-10-17T17:21:15.604Z,53.40
2023-10-17T17:23:45.234Z,53.40
2023-10-17T17:26:16.845Z,53.40
2023-10-17T17:28:44.943Z,53.40
2023-10-17T17:31:12.974Z,53.30
2023-10-17T17:33:41.054Z,53.30
2023-10-17T17:36:09.273Z,53.40
2023-10-17T17:38:40.782Z,53.40
2023-10-17T17:41:10.160Z,53.40
2023-10-17T17:43:38.117Z,53.40
2023-10-17T17:46:06.979Z,53.30
2023-10-17T17:48:36.297Z,53.40
2023-10-17T17:51:04.778Z,53.40
2023-10-17T17:53:33.106Z,53.30
2023-10-17T17:56:02.122Z,53.40
2023-10-17T17:58:32.311Z,53.40
2023-10-17T18:01:01.173Z,53.30
2023-10-17T18:03:29.849Z,53.50
2023-10-17T18:05:58.037Z,53.30
2023-10-17T18:08:27.485Z,53.30
2023-10-17T18:10:55.429Z,53.40
2023-10-17T18:13:23.362Z,53.30
2023-10-17T18:15:54.735Z,53.40
2023-10-17T18:18:22.781Z,53.40
2023-10-17T18:20:50.800Z,53.30
2023-10-17T18:23:19.200Z,53.30
2023-10-17T18:25:47.092Z,53.30
2023-10-17T18:28:14.973Z,53.40
2023-10-17T18:30:42.983Z,53.30
2023-10-17T18:33:12.438Z,53.40
2023-10-17T18:35:40.386Z,53.30
2023-10-17T18:38:08.716Z,53.30
2023-10-17T18:40:39.125Z,53.30
2023-10-17T18:43:07.069Z,53.30
2023-10-17T18:45:37.307Z,53.40
2023-10-17T18:48:06.249Z,53.30
2023-10-17T18:50:36.058Z,53.30
2023-10-17T18:53:04.386Z,53.30
2023-10-17T18:55:34.641Z,53.30
2023-10-17T18:58:02.640Z,53.30
2023-10-17T19:00:31.011Z,53.30
2023-10-17T19:02:59.011Z,53.30
2023-10-17T19:05:27.374Z,53.30
2023-10-17T19:07:56.614Z,53.30
2023-10-17T19:10:24.531Z,53.30
2023-10-17T19:12:53.702Z,53.30
2023-10-17T19:15:22.968Z,53.30
2023-10-17T19:17:52.868Z,53.30
2023-10-17T19:20:21.055Z,53.30
2023-10-17T19:22:49.144Z,53.30
2023-10-17T19:25:18.542Z,53.30
2023-10-17T19:27:46.582Z,53.30
2023-10-17T19:30:15.334Z,53.30
2023-10-17T19:32:43.863Z,53.30
2023-10-17T19:35:12.112Z,53.30
2023-10-17T19:37:40.377Z,53.30
2023-10-17T19:40:09.883Z,53.30
2023-10-17T19:42:39.248Z,53.30
2023-10-17T19:45:09.297Z,53.30
2023-10-17T19:47:37.492Z,53.30
2023-10-17T19:50:05.854Z,53.30
2023-10-17T19:52:35.104Z,53.30
2023-10-17T19:55:03.187Z,53.30
2023-10-17T19:57:31.274Z,53.30
2023-10-17T20:00:00.549Z,53.30
2023-10-17T20:02:29.608Z,53.30
2023-10-17T20:04:58.625Z,53.30
2023-10-17T20:07:26.516Z,53.30
2023-10-17T20:09:54.679Z,53.30
2023-10-17T20:12:22.671Z,53.30
2023-10-17T20:14:50.580Z,53.30
2023-10-17T20:17:21.847Z,53.30
2023-10-17T20:19:52.289Z,53.30
2023-10-17T20:22:20.226Z,53.30
2023-10-17T20:24:48.277Z,53.30
2023-10-17T20:27:16.354Z,53.30
2023-10-17T20:29:44.300Z,53.30
2023-10-17T20:32:13.092Z,53.30
2023-10-17T20:34:43.051Z,53.30
2023-10-17T20:37:11.468Z,53.30
2023-10-17T20:39:39.897Z,53.30
2023-10-17T20:42:09.237Z,53.30
2023-10-17T20:44:37.171Z,53.30
2023-10-17T20:47:06.580Z,53.30
2023-10-17T20:49:35.712Z,53.30
2023-10-17T20:52:05.955Z,53.30
2023-10-17T20:54:34.182Z,53.30
2023-10-17T20:57:02.121Z,53.30
2023-10-17T20:59:30.249Z,53.30
2023-10-17T21:01:58.391Z,53.30
2023-10-17T21:04:27.269Z,53.30
2023-10-17T21:06:55.327Z,53.30
2023-10-17T21:09:25.641Z,53.30
2023-10-17T21:11:53.753Z,53.30
2023-10-17T21:14:21.731Z,53.30
2023-10-17T21:16:50.113Z,53.30
2023-10-17T21:19:19.897Z,53.30
2023-10-17T21:21:47.877Z,53.30
2023-10-17T21:24:16.085Z,53.30
2023-10-17T21:26:45.352Z,53.30
2023-10-17T21:29:13.349Z,53.30
2023-10-17T21:31:41.814Z,53.30
2023-10-17T21:34:10.958Z,53.30
2023-10-17T21:36:38.963Z,53.30
2023-10-17T21:39:08.043Z,53.30
2023-10-17T21:41:36.099Z,53.30
2023-10-17T21:44:05.595Z,53.90
2023-10-17T21:46:33.533Z,53.30
2023-10-17T21:49:01.523Z,53.30
2023-10-17T21:51:29.495Z,53.30
2023-10-17T21:53:59.022Z,53.30
2023-10-17T21:56:27.081Z,53.30
2023-10-17T21:58:55.022Z,53.20
2023-10-17T22:01:25.742Z,53.30
2023-10-17T22:03:53.831Z,53.20
2023-10-17T22:06:22.839Z,53.30
2023-10-17T22:08:50.831Z,53.20
2023-10-17T22:11:19.765Z,53.20
2023-10-17T22:13:51.428Z,53.20
2023-10-17T22:16:21.832Z,53.20
2023-10-17T22:18:52.050Z,53.20
2023-10-17T22:21:21.774Z,53.20
2023-10-17T22:23:50.370Z,53.30
2023-10-17T22:26:18.600Z,53.20
2023-10-17T22:28:48.155Z,53.20
2023-10-17T22:31:16.299Z,53.20
2023-10-17T22:33:44.335Z,53.20
2023-10-17T22:36:14.110Z,53.20
2023-10-17T22:38:42.132Z,53.20
2023-10-17T22:41:11.141Z,53.30
2023-10-17T22:43:39.111Z,53.20
2023-10-17T22:46:09.266Z,53.20
2023-10-17T22:48:38.412Z,53.20
2023-10-17T22:51:07.024Z,53.30
2023-10-17T22:53:37.591Z,53.20
2023-10-17T22:56:10.630Z,53.20
2023-10-17T22:58:38.640Z,53.20
2023-10-17T23:01:07.054Z,53.30
2023-10-17T23:03:35.093Z,53.20
2023-10-17T23:06:07.448Z,53.20
2023-10-17T23:08:36.973Z,53.20
2023-10-17T23:11:07.303Z,53.20
2023-10-17T23:13:35.450Z,53.20
2023-10-17T23:16:08.846Z,53.20
2023-10-17T23:18:39.043Z,53.20
2023-10-17T23:21:07.672Z,53.20
2023-10-17T23:23:37.055Z,53.20
2023-10-17T23:26:04.961Z,53.20
2023-10-17T23:28:33.283Z,53.10
2023-10-17T23:31:01.493Z,53.20
2023-10-17T23:33:30.434Z,53.20
2023-10-17T23:35:59.795Z,53.20
2023-10-17T23:38:29.029Z,53.20
2023-10-17T23:40:58.638Z,53.10
2023-10-17T23:43:26.577Z,53.20
2023-10-17T23:45:54.930Z,53.10
2023-10-17T23:48:28.074Z,53.10
2023-10-17T23:50:57.232Z,53.10
2023-10-17T23:53:28.624Z,53.10
2023-10-17T23:56:02.730Z,53.10
2023-10-17T23:58:31.484Z,53.10
